sensor_id;sensor_type;location;lat;lon;timestamp;P1;durP1;ratioP1;P2;durP2;ratioP2
1503;SDS011;743;47.076;15.494;2023-01-28T00:02:05;528.13;;;132.13;;
1503;SDS011;743;47.076;15.494;2023-01-28T00:04:34;537.20;;;138.40;;
1503;SDS011;743;47.076;15.494;2023-01-28T00:07:02;529.33;;;136.27;;
1503;SDS011;743;47.076;15.494;2023-01-28T00:09:29;547.00;;;142.27;;
1503;SDS011;743;47.076;15.494;2023-01-28T00:11:57;550.35;;;146.95;;
1503;SDS011;743;47.076;15.494;2023-01-28T00:14:24;549.33;;;141.98;;
1503;SDS011;743;47.076;15.494;2023-01-28T00:16:53;546.55;;;139.65;;
1503;SDS011;743;47.076;15.494;2023-01-28T00:19:21;548.38;;;146.10;;
1503;SDS011;743;47.076;15.494;2023-01-28T00:21:52;544.97;;;143.93;;
1503;SDS011;743;47.076;15.494;2023-01-28T00:24:22;553.38;;;146.65;;
1503;SDS011;743;47.076;15.494;2023-01-28T00:26:52;548.35;;;141.68;;
1503;SDS011;743;47.076;15.494;2023-01-28T00:29:20;560.17;;;146.88;;
1503;SDS011;743;47.076;15.494;2023-01-28T00:31:47;551.05;;;144.57;;
1503;SDS011;743;47.076;15.494;2023-01-28T00:34:17;549.95;;;145.40;;
1503;SDS011;743;47.076;15.494;2023-01-28T00:36:46;545.53;;;141.85;;
1503;SDS011;743;47.076;15.494;2023-01-28T00:39:23;552.67;;;147.38;;
1503;SDS011;743;47.076;15.494;2023-01-28T00:41:52;548.45;;;144.35;;
1503;SDS011;743;47.076;15.494;2023-01-28T00:44:20;543.17;;;139.15;;
1503;SDS011;743;47.076;15.494;2023-01-28T00:46:48;549.67;;;146.27;;
1503;SDS011;743;47.076;15.494;2023-01-28T00:49:18;552.80;;;142.18;;
1503;SDS011;743;47.076;15.494;2023-01-28T00:51:46;554.33;;;142.75;;
1503;SDS011;743;47.076;15.494;2023-01-28T00:54:17;394.43;;;102.70;;
1503;SDS011;743;47.076;15.494;2023-01-28T00:56:47;556.15;;;146.43;;
1503;SDS011;743;47.076;15.494;2023-01-28T00:59:17;554.70;;;142.00;;
1503;SDS011;743;47.076;15.494;2023-01-28T01:01:45;557.70;;;142.90;;
1503;SDS011;743;47.076;15.494;2023-01-28T01:04:12;559.67;;;149.85;;
1503;SDS011;743;47.076;15.494;2023-01-28T01:06:50;543.30;;;137.35;;
1503;SDS011;743;47.076;15.494;2023-01-28T01:09:19;549.42;;;141.98;;
1503;SDS011;743;47.076;15.494;2023-01-28T01:11:50;536.05;;;130.60;;
1503;SDS011;743;47.076;15.494;2023-01-28T01:14:17;540.83;;;133.25;;
1503;SDS011;743;47.076;15.494;2023-01-28T01:16:45;541.53;;;134.50;;
1503;SDS011;743;47.076;15.494;2023-01-28T01:19:12;532.08;;;133.43;;
1503;SDS011;743;47.076;15.494;2023-01-28T01:21:40;532.17;;;133.82;;
1503;SDS011;743;47.076;15.494;2023-01-28T01:24:08;536.22;;;135.35;;
1503;SDS011;743;47.076;15.494;2023-01-28T01:26:38;542.63;;;132.70;;
1503;SDS011;743;47.076;15.494;2023-01-28T01:29:07;531.03;;;132.90;;
1503;SDS011;743;47.076;15.494;2023-01-28T01:31:35;547.42;;;138.82;;
1503;SDS011;743;47.076;15.494;2023-01-28T01:34:02;538.70;;;132.68;;
1503;SDS011;743;47.076;15.494;2023-01-28T01:36:30;539.97;;;135.75;;
1503;SDS011;743;47.076;15.494;2023-01-28T01:38:57;540.33;;;133.32;;
1503;SDS011;743;47.076;15.494;2023-01-28T01:41:26;546.85;;;139.50;;
1503;SDS011;743;47.076;15.494;2023-01-28T01:43:55;541.80;;;137.15;;
1503;SDS011;743;47.076;15.494;2023-01-28T01:46:28;541.08;;;137.15;;
1503;SDS011;743;47.076;15.494;2023-01-28T01:49:00;531.15;;;131.73;;
1503;SDS011;743;47.076;15.494;2023-01-28T01:51:33;540.42;;;133.25;;
1503;SDS011;743;47.076;15.494;2023-01-28T01:54:01;528.47;;;131.75;;
1503;SDS011;743;47.076;15.494;2023-01-28T01:56:31;542.47;;;137.50;;
1503;SDS011;743;47.076;15.494;2023-01-28T01:59:02;536.97;;;134.52;;
1503;SDS011;743;47.076;15.494;2023-01-28T02:01:33;538.75;;;136.82;;
1503;SDS011;743;47.076;15.494;2023-01-28T02:04:02;523.80;;;129.43;;
1503;SDS011;743;47.076;15.494;2023-01-28T02:06:37;535.83;;;136.32;;
1503;SDS011;743;47.076;15.494;2023-01-28T02:09:19;535.28;;;130.98;;
1503;SDS011;743;47.076;15.494;2023-01-28T02:11:49;522.92;;;132.55;;
1503;SDS011;743;47.076;15.494;2023-01-28T02:14:19;533.15;;;133.02;;
1503;SDS011;743;47.076;15.494;2023-01-28T02:16:50;539.70;;;134.05;;
1503;SDS011;743;47.076;15.494;2023-01-28T02:19:17;541.42;;;136.10;;
1503;SDS011;743;47.076;15.494;2023-01-28T02:24:53;543.92;;;135.93;;
1503;SDS011;743;47.076;15.494;2023-01-28T02:27:47;544.50;;;132.00;;
1503;SDS011;743;47.076;15.494;2023-01-28T02:30:24;538.60;;;136.27;;
1503;SDS011;743;47.076;15.494;2023-01-28T02:32:56;536.30;;;129.55;;
1503;SDS011;743;47.076;15.494;2023-01-28T02:35:28;538.88;;;133.80;;
1503;SDS011;743;47.076;15.494;2023-01-28T02:38:02;541.33;;;134.82;;
1503;SDS011;743;47.076;15.494;2023-01-28T02:40:36;551.53;;;140.68;;
1503;SDS011;743;47.076;15.494;2023-01-28T02:43:32;538.05;;;134.23;;
1503;SDS011;743;47.076;15.494;2023-01-28T02:46:01;542.13;;;136.15;;
1503;SDS011;743;47.076;15.494;2023-01-28T02:48:54;546.85;;;138.05;;
1503;SDS011;743;47.076;15.494;2023-01-28T02:51:23;537.40;;;135.85;;
1503;SDS011;743;47.076;15.494;2023-01-28T02:54:03;539.17;;;137.63;;
1503;SDS011;743;47.076;15.494;2023-01-28T02:56:40;532.33;;;135.10;;
1503;SDS011;743;47.076;15.494;2023-01-28T02:59:14;543.72;;;142.07;;
1503;SDS011;743;47.076;15.494;2023-01-28T03:02:02;536.42;;;132.93;;
1503;SDS011;743;47.076;15.494;2023-01-28T03:04:40;538.78;;;133.05;;
1503;SDS011;743;47.076;15.494;2023-01-28T03:07:14;533.05;;;129.93;;
1503;SDS011;743;47.076;15.494;2023-01-28T03:09:44;537.58;;;133.90;;
1503;SDS011;743;47.076;15.494;2023-01-28T03:12:13;524.92;;;125.70;;
1503;SDS011;743;47.076;15.494;2023-01-28T03:15:06;537.45;;;132.77;;
1503;SDS011;743;47.076;15.494;2023-01-28T03:17:54;530.30;;;131.73;;
1503;SDS011;743;47.076;15.494;2023-01-28T03:20:46;537.65;;;134.32;;
1503;SDS011;743;47.076;15.494;2023-01-28T03:23:36;549.90;;;141.25;;
1503;SDS011;743;47.076;15.494;2023-01-28T03:26:24;539.75;;;133.88;;
1503;SDS011;743;47.076;15.494;2023-01-28T03:29:13;530.70;;;131.20;;
1503;SDS011;743;47.076;15.494;2023-01-28T03:32:01;529.72;;;133.23;;
1503;SDS011;743;47.076;15.494;2023-01-28T03:34:46;534.85;;;136.68;;
1503;SDS011;743;47.076;15.494;2023-01-28T03:37:31;533.78;;;133.48;;
1503;SDS011;743;47.076;15.494;2023-01-28T03:40:00;384.97;;;94.77;;
1503;SDS011;743;47.076;15.494;2023-01-28T03:42:30;539.97;;;138.20;;
1503;SDS011;743;47.076;15.494;2023-01-28T03:44:58;532.25;;;130.43;;
1503;SDS011;743;47.076;15.494;2023-01-28T03:47:31;548.22;;;136.82;;
1503;SDS011;743;47.076;15.494;2023-01-28T03:49:59;536.15;;;133.60;;
1503;SDS011;743;47.076;15.494;2023-01-28T03:52:28;534.45;;;129.93;;
1503;SDS011;743;47.076;15.494;2023-01-28T03:54:56;540.28;;;135.77;;
1503;SDS011;743;47.076;15.494;2023-01-28T03:57:25;379.30;;;94.75;;
1503;SDS011;743;47.076;15.494;2023-01-28T03:59:56;536.53;;;137.90;;
1503;SDS011;743;47.076;15.494;2023-01-28T04:02:25;529.65;;;129.57;;
1503;SDS011;743;47.076;15.494;2023-01-28T04:04:54;529.03;;;129.68;;
1503;SDS011;743;47.076;15.494;2023-01-28T04:07:23;538.55;;;136.10;;
1503;SDS011;743;47.076;15.494;2023-01-28T04:09:50;538.17;;;135.60;;
1503;SDS011;743;47.076;15.494;2023-01-28T04:12:18;534.90;;;132.13;;
1503;SDS011;743;47.076;15.494;2023-01-28T04:14:48;538.33;;;133.77;;
1503;SDS011;743;47.076;15.494;2023-01-28T04:17:15;530.97;;;129.93;;
1503;SDS011;743;47.076;15.494;2023-01-28T04:19:43;540.28;;;133.90;;
1503;SDS011;743;47.076;15.494;2023-01-28T04:22:14;557.10;;;147.90;;
1503;SDS011;743;47.076;15.494;2023-01-28T04:24:42;558.60;;;148.68;;
1503;SDS011;743;47.076;15.494;2023-01-28T04:27:09;543.97;;;142.63;;
1503;SDS011;743;47.076;15.494;2023-01-28T04:29:37;537.47;;;136.13;;
1503;SDS011;743;47.076;15.494;2023-01-28T04:32:04;543.45;;;144.15;;
1503;SDS011;743;47.076;15.494;2023-01-28T04:34:32;548.42;;;136.15;;
1503;SDS011;743;47.076;15.494;2023-01-28T04:36:59;540.97;;;133.45;;
1503;SDS011;743;47.076;15.494;2023-01-28T04:39:31;542.40;;;133.18;;
1503;SDS011;743;47.076;15.494;2023-01-28T04:41:58;528.40;;;130.70;;
1503;SDS011;743;47.076;15.494;2023-01-28T04:44:26;523.60;;;130.38;;
1503;SDS011;743;47.076;15.494;2023-01-28T04:46:53;518.15;;;130.32;;
1503;SDS011;743;47.076;15.494;2023-01-28T04:49:23;371.48;;;92.63;;
1503;SDS011;743;47.076;15.494;2023-01-28T04:51:51;519.72;;;127.35;;
1503;SDS011;743;47.076;15.494;2023-01-28T04:54:20;525.40;;;131.48;;
1503;SDS011;743;47.076;15.494;2023-01-28T04:56:49;539.75;;;140.20;;
1503;SDS011;743;47.076;15.494;2023-01-28T04:59:17;542.78;;;140.60;;
1503;SDS011;743;47.076;15.494;2023-01-28T05:01:48;551.45;;;144.23;;
1503;SDS011;743;47.076;15.494;2023-01-28T05:04:20;546.50;;;140.35;;
1503;SDS011;743;47.076;15.494;2023-01-28T05:06:47;539.47;;;133.68;;
1503;SDS011;743;47.076;15.494;2023-01-28T05:09:15;543.00;;;134.20;;
1503;SDS011;743;47.076;15.494;2023-01-28T05:11:44;541.20;;;138.60;;
1503;SDS011;743;47.076;15.494;2023-01-28T05:14:14;533.90;;;131.98;;
1503;SDS011;743;47.076;15.494;2023-01-28T05:16:41;540.42;;;135.40;;
1503;SDS011;743;47.076;15.494;2023-01-28T05:19:08;547.75;;;139.65;;
1503;SDS011;743;47.076;15.494;2023-01-28T05:21:36;550.67;;;140.85;;
1503;SDS011;743;47.076;15.494;2023-01-28T05:24:04;550.75;;;145.27;;
1503;SDS011;743;47.076;15.494;2023-01-28T05:26:33;547.55;;;139.57;;
1503;SDS011;743;47.076;15.494;2023-01-28T05:29:01;559.17;;;157.48;;
1503;SDS011;743;47.076;15.494;2023-01-28T05:31:32;558.53;;;145.57;;
1503;SDS011;743;47.076;15.494;2023-01-28T05:34:00;554.30;;;145.52;;
1503;SDS011;743;47.076;15.494;2023-01-28T05:36:28;549.92;;;145.55;;
1503;SDS011;743;47.076;15.494;2023-01-28T05:38:56;553.58;;;141.77;;
1503;SDS011;743;47.076;15.494;2023-01-28T05:41:24;546.15;;;135.13;;
1503;SDS011;743;47.076;15.494;2023-01-28T05:43:54;542.65;;;134.68;;
1503;SDS011;743;47.076;15.494;2023-01-28T05:46:25;551.45;;;139.45;;
1503;SDS011;743;47.076;15.494;2023-01-28T05:48:55;542.35;;;135.93;;
1503;SDS011;743;47.076;15.494;2023-01-28T05:53:49;537.20;;;129.82;;
1503;SDS011;743;47.076;15.494;2023-01-28T05:56:17;539.05;;;133.52;;
1503;SDS011;743;47.076;15.494;2023-01-28T05:58:44;543.50;;;133.85;;
1503;SDS011;743;47.076;15.494;2023-01-28T06:01:12;569.00;;;144.55;;
1503;SDS011;743;47.076;15.494;2023-01-28T06:03:39;551.45;;;138.68;;
1503;SDS011;743;47.076;15.494;2023-01-28T06:06:08;545.97;;;137.15;;
1503;SDS011;743;47.076;15.494;2023-01-28T06:08:35;550.83;;;136.00;;
1503;SDS011;743;47.076;15.494;2023-01-28T06:11:03;543.42;;;139.25;;
1503;SDS011;743;47.076;15.494;2023-01-28T06:13:31;534.63;;;137.10;;
1503;SDS011;743;47.076;15.494;2023-01-28T06:15:59;531.92;;;137.30;;
1503;SDS011;743;47.076;15.494;2023-01-28T06:18:26;572.38;;;151.05;;
1503;SDS011;743;47.076;15.494;2023-01-28T06:20:54;575.63;;;154.77;;
1503;SDS011;743;47.076;15.494;2023-01-28T06:23:24;533.20;;;152.98;;
1503;SDS011;743;47.076;15.494;2023-01-28T06:25:52;527.40;;;150.80;;
1503;SDS011;743;47.076;15.494;2023-01-28T06:28:20;533.70;;;154.05;;
1503;SDS011;743;47.076;15.494;2023-01-28T06:30:47;522.70;;;152.82;;
1503;SDS011;743;47.076;15.494;2023-01-28T06:33:15;534.83;;;156.93;;
1503;SDS011;743;47.076;15.494;2023-01-28T06:35:44;526.72;;;151.68;;
1503;SDS011;743;47.076;15.494;2023-01-28T06:38:12;534.80;;;154.45;;
1503;SDS011;743;47.076;15.494;2023-01-28T06:40:41;534.60;;;152.10;;
1503;SDS011;743;47.076;15.494;2023-01-28T06:43:09;511.90;;;143.70;;
1503;SDS011;743;47.076;15.494;2023-01-28T06:45:36;522.70;;;147.68;;
1503;SDS011;743;47.076;15.494;2023-01-28T06:48:07;520.47;;;145.27;;
1503;SDS011;743;47.076;15.494;2023-01-28T06:50:35;526.40;;;145.35;;
1503;SDS011;743;47.076;15.494;2023-01-28T06:53:04;527.20;;;144.07;;
1503;SDS011;743;47.076;15.494;2023-01-28T06:55:31;539.13;;;148.32;;
1503;SDS011;743;47.076;15.494;2023-01-28T06:58:01;528.28;;;136.88;;
1503;SDS011;743;47.076;15.494;2023-01-28T07:00:29;560.40;;;150.57;;
1503;SDS011;743;47.076;15.494;2023-01-28T07:02:57;532.42;;;139.32;;
1503;SDS011;743;47.076;15.494;2023-01-28T07:05:25;511.48;;;142.13;;
1503;SDS011;743;47.076;15.494;2023-01-28T07:07:52;548.65;;;151.23;;
1503;SDS011;743;47.076;15.494;2023-01-28T07:10:20;539.45;;;141.05;;
1503;SDS011;743;47.076;15.494;2023-01-28T07:12:47;560.25;;;149.43;;
1503;SDS011;743;47.076;15.494;2023-01-28T07:15:17;559.10;;;148.48;;
1503;SDS011;743;47.076;15.494;2023-01-28T07:17:45;553.83;;;144.40;;
1503;SDS011;743;47.076;15.494;2023-01-28T07:20:16;547.45;;;143.13;;
1503;SDS011;743;47.076;15.494;2023-01-28T07:22:44;555.65;;;143.80;;
1503;SDS011;743;47.076;15.494;2023-01-28T07:25:12;551.35;;;137.48;;
1503;SDS011;743;47.076;15.494;2023-01-28T07:27:45;554.38;;;144.52;;
1503;SDS011;743;47.076;15.494;2023-01-28T07:30:15;548.67;;;141.18;;
1503;SDS011;743;47.076;15.494;2023-01-28T07:32:51;553.10;;;144.13;;
1503;SDS011;743;47.076;15.494;2023-01-28T07:35:18;561.72;;;138.40;;
1503;SDS011;743;47.076;15.494;2023-01-28T07:37:50;560.63;;;145.88;;
1503;SDS011;743;47.076;15.494;2023-01-28T07:40:18;548.15;;;138.82;;
1503;SDS011;743;47.076;15.494;2023-01-28T07:42:46;556.45;;;140.10;;
1503;SDS011;743;47.076;15.494;2023-01-28T07:45:13;537.00;;;136.70;;
1503;SDS011;743;47.076;15.494;2023-01-28T07:47:44;562.67;;;151.68;;
1503;SDS011;743;47.076;15.494;2023-01-28T07:50:19;538.85;;;139.27;;
1503;SDS011;743;47.076;15.494;2023-01-28T07:52:46;556.10;;;148.32;;
1503;SDS011;743;47.076;15.494;2023-01-28T07:55:14;562.47;;;147.20;;
1503;SDS011;743;47.076;15.494;2023-01-28T07:57:49;400.48;;;106.15;;
1503;SDS011;743;47.076;15.494;2023-01-28T08:00:18;550.67;;;143.30;;
1503;SDS011;743;47.076;15.494;2023-01-28T08:02:50;547.95;;;141.05;;
1503;SDS011;743;47.076;15.494;2023-01-28T08:05:21;561.70;;;146.88;;
1503;SDS011;743;47.076;15.494;2023-01-28T08:10:26;547.40;;;140.10;;
1503;SDS011;743;47.076;15.494;2023-01-28T08:12:54;568.70;;;150.57;;
1503;SDS011;743;47.076;15.494;2023-01-28T08:15:24;538.33;;;136.60;;
1503;SDS011;743;47.076;15.494;2023-01-28T08:17:54;401.40;;;106.68;;
1503;SDS011;743;47.076;15.494;2023-01-28T08:20:22;557.55;;;148.73;;
1503;SDS011;743;47.076;15.494;2023-01-28T08:22:52;594.90;;;167.38;;
1503;SDS011;743;47.076;15.494;2023-01-28T08:25:32;405.23;;;112.00;;
1503;SDS011;743;47.076;15.494;2023-01-28T08:27:59;414.50;;;109.55;;
1503;SDS011;743;47.076;15.494;2023-01-28T08:30:27;560.55;;;144.27;;
1503;SDS011;743;47.076;15.494;2023-01-28T08:32:58;579.85;;;158.85;;
1503;SDS011;743;47.076;15.494;2023-01-28T08:35:26;569.95;;;153.25;;
1503;SDS011;743;47.076;15.494;2023-01-28T08:37:54;574.13;;;152.68;;
1503;SDS011;743;47.076;15.494;2023-01-28T08:40:29;553.15;;;152.63;;
1503;SDS011;743;47.076;15.494;2023-01-28T08:45:26;553.70;;;151.38;;
1503;SDS011;743;47.076;15.494;2023-01-28T08:47:58;550.80;;;149.48;;
1503;SDS011;743;47.076;15.494;2023-01-28T08:50:31;548.10;;;150.27;;
1503;SDS011;743;47.076;15.494;2023-01-28T08:53:03;556.50;;;154.07;;
1503;SDS011;743;47.076;15.494;2023-01-28T08:55:33;592.08;;;173.77;;
1503;SDS011;743;47.076;15.494;2023-01-28T08:58:03;552.08;;;155.02;;
1503;SDS011;743;47.076;15.494;2023-01-28T09:00:33;553.67;;;151.43;;
1503;SDS011;743;47.076;15.494;2023-01-28T09:03:03;556.53;;;150.82;;
1503;SDS011;743;47.076;15.494;2023-01-28T09:05:32;546.63;;;146.80;;
1503;SDS011;743;47.076;15.494;2023-01-28T09:08:00;547.53;;;146.55;;
1503;SDS011;743;47.076;15.494;2023-01-28T09:10:28;551.13;;;147.68;;
1503;SDS011;743;47.076;15.494;2023-01-28T09:12:56;556.05;;;149.85;;
1503;SDS011;743;47.076;15.494;2023-01-28T09:15:23;564.25;;;150.50;;
1503;SDS011;743;47.076;15.494;2023-01-28T09:17:56;401.42;;;107.75;;
1503;SDS011;743;47.076;15.494;2023-01-28T09:20:27;565.03;;;150.35;;
1503;SDS011;743;47.076;15.494;2023-01-28T09:22:57;637.38;;;174.63;;
1503;SDS011;743;47.076;15.494;2023-01-28T09:25:24;446.90;;;125.33;;
1503;SDS011;743;47.076;15.494;2023-01-28T09:27:52;590.72;;;170.13;;
1503;SDS011;743;47.076;15.494;2023-01-28T09:30:20;582.22;;;174.75;;
1503;SDS011;743;47.076;15.494;2023-01-28T09:32:48;583.60;;;184.52;;
1503;SDS011;743;47.076;15.494;2023-01-28T09:35:18;576.33;;;179.85;;
1503;SDS011;743;47.076;15.494;2023-01-28T09:37:48;575.85;;;183.88;;
1503;SDS011;743;47.076;15.494;2023-01-28T09:40:22;597.25;;;198.60;;
1503;SDS011;743;47.076;15.494;2023-01-28T09:43:00;553.88;;;176.77;;
1503;SDS011;743;47.076;15.494;2023-01-28T09:45:42;561.45;;;186.65;;
1503;SDS011;743;47.076;15.494;2023-01-28T09:48:15;580.20;;;188.18;;
1503;SDS011;743;47.076;15.494;2023-01-28T09:50:46;549.25;;;170.75;;
1503;SDS011;743;47.076;15.494;2023-01-28T09:53:22;549.63;;;164.38;;
1503;SDS011;743;47.076;15.494;2023-01-28T09:55:53;550.78;;;169.88;;
1503;SDS011;743;47.076;15.494;2023-01-28T09:58:23;549.40;;;165.43;;
1503;SDS011;743;47.076;15.494;2023-01-28T10:00:52;383.23;;;126.90;;
1503;SDS011;743;47.076;15.494;2023-01-28T10:03:36;538.70;;;167.80;;
1503;SDS011;743;47.076;15.494;2023-01-28T10:06:25;590.55;;;172.80;;
1503;SDS011;743;47.076;15.494;2023-01-28T10:12:09;550.25;;;174.18;;
1503;SDS011;743;47.076;15.494;2023-01-28T10:14:53;581.13;;;182.80;;
1503;SDS011;743;47.076;15.494;2023-01-28T10:17:24;546.60;;;169.63;;
1503;SDS011;743;47.076;15.494;2023-01-28T10:19:56;551.40;;;182.50;;
1503;SDS011;743;47.076;15.494;2023-01-28T10:22:29;568.70;;;183.88;;
1503;SDS011;743;47.076;15.494;2023-01-28T10:25:06;550.85;;;172.35;;
1503;SDS011;743;47.076;15.494;2023-01-28T10:27:43;556.53;;;178.30;;
1503;SDS011;743;47.076;15.494;2023-01-28T10:30:15;620.33;;;265.23;;
1503;SDS011;743;47.076;15.494;2023-01-28T10:32:48;567.92;;;183.90;;
1503;SDS011;743;47.076;15.494;2023-01-28T10:35:19;560.72;;;173.55;;
1503;SDS011;743;47.076;15.494;2023-01-28T10:37:48;551.90;;;167.27;;
1503;SDS011;743;47.076;15.494;2023-01-28T10:40:19;579.67;;;178.10;;
1503;SDS011;743;47.076;15.494;2023-01-28T10:42:49;588.88;;;187.82;;
1503;SDS011;743;47.076;15.494;2023-01-28T10:45:19;580.90;;;177.30;;
1503;SDS011;743;47.076;15.494;2023-01-28T10:47:51;573.10;;;177.55;;
1503;SDS011;743;47.076;15.494;2023-01-28T10:50:30;577.75;;;196.70;;
1503;SDS011;743;47.076;15.494;2023-01-28T10:53:02;570.90;;;171.35;;
1503;SDS011;743;47.076;15.494;2023-01-28T10:55:48;574.35;;;170.27;;
1503;SDS011;743;47.076;15.494;2023-01-28T10:58:18;575.70;;;162.95;;
1503;SDS011;743;47.076;15.494;2023-01-28T11:00:51;583.38;;;173.50;;
1503;SDS011;743;47.076;15.494;2023-01-28T11:03:22;578.50;;;164.02;;
1503;SDS011;743;47.076;15.494;2023-01-28T11:05:53;605.72;;;184.88;;
1503;SDS011;743;47.076;15.494;2023-01-28T11:08:22;583.65;;;175.90;;
1503;SDS011;743;47.076;15.494;2023-01-28T11:10:53;580.08;;;177.27;;
1503;SDS011;743;47.076;15.494;2023-01-28T11:13:22;594.50;;;181.65;;
1503;SDS011;743;47.076;15.494;2023-01-28T11:15:59;586.03;;;165.60;;
1503;SDS011;743;47.076;15.494;2023-01-28T11:18:30;553.45;;;165.13;;
1503;SDS011;743;47.076;15.494;2023-01-28T11:21:02;573.50;;;168.90;;
1503;SDS011;743;47.076;15.494;2023-01-28T11:23:32;572.05;;;163.00;;
1503;SDS011;743;47.076;15.494;2023-01-28T11:26:18;576.30;;;158.35;;
1503;SDS011;743;47.076;15.494;2023-01-28T11:28:54;556.65;;;167.23;;
1503;SDS011;743;47.076;15.494;2023-01-28T11:31:21;573.78;;;171.60;;
1503;SDS011;743;47.076;15.494;2023-01-28T11:33:53;566.25;;;161.35;;
1503;SDS011;743;47.076;15.494;2023-01-28T11:36:24;554.70;;;169.35;;
1503;SDS011;743;47.076;15.494;2023-01-28T11:41:27;572.13;;;154.65;;
1503;SDS011;743;47.076;15.494;2023-01-28T11:43:57;606.50;;;174.15;;
1503;SDS011;743;47.076;15.494;2023-01-28T11:49:33;573.70;;;168.30;;
1503;SDS011;743;47.076;15.494;2023-01-28T11:52:16;574.15;;;174.90;;
1503;SDS011;743;47.076;15.494;2023-01-28T11:54:48;588.78;;;172.00;;
1503;SDS011;743;47.076;15.494;2023-01-28T11:57:29;586.55;;;170.40;;
1503;SDS011;743;47.076;15.494;2023-01-28T12:00:17;581.28;;;168.43;;
1503;SDS011;743;47.076;15.494;2023-01-28T12:02:57;548.95;;;161.73;;
1503;SDS011;743;47.076;15.494;2023-01-28T12:08:22;559.33;;;164.55;;
1503;SDS011;743;47.076;15.494;2023-01-28T12:11:02;563.75;;;164.98;;
1503;SDS011;743;47.076;15.494;2023-01-28T12:13:50;557.20;;;156.30;;
1503;SDS011;743;47.076;15.494;2023-01-28T12:16:26;610.53;;;173.63;;
1503;SDS011;743;47.076;15.494;2023-01-28T12:19:13;589.13;;;180.98;;
1503;SDS011;743;47.076;15.494;2023-01-28T12:25:14;625.72;;;213.75;;
1503;SDS011;743;47.076;15.494;2023-01-28T12:28:14;596.55;;;182.68;;
1503;SDS011;743;47.076;15.494;2023-01-28T12:30:59;596.80;;;188.20;;
1503;SDS011;743;47.076;15.494;2023-01-28T12:33:41;600.85;;;179.55;;
1503;SDS011;743;47.076;15.494;2023-01-28T12:36:25;613.17;;;198.80;;
1503;SDS011;743;47.076;15.494;2023-01-28T12:39:10;579.35;;;176.40;;
1503;SDS011;743;47.076;15.494;2023-01-28T12:41:48;572.67;;;172.68;;
1503;SDS011;743;47.076;15.494;2023-01-28T12:44:22;566.72;;;172.65;;
1503;SDS011;743;47.076;15.494;2023-01-28T12:46:57;566.70;;;168.93;;
1503;SDS011;743;47.076;15.494;2023-01-28T12:49:28;585.42;;;176.68;;
1503;SDS011;743;47.076;15.494;2023-01-28T12:52:02;547.78;;;155.73;;
1503;SDS011;743;47.076;15.494;2023-01-28T12:54:34;549.08;;;163.90;;
1503;SDS011;743;47.076;15.494;2023-01-28T12:57:10;564.05;;;165.00;;
1503;SDS011;743;47.076;15.494;2023-01-28T12:59:45;580.63;;;168.30;;
1503;SDS011;743;47.076;15.494;2023-01-28T13:02:20;579.85;;;158.50;;
1503;SDS011;743;47.076;15.494;2023-01-28T13:04:53;562.20;;;165.07;;
1503;SDS011;743;47.076;15.494;2023-01-28T13:07:31;571.15;;;161.95;;
1503;SDS011;743;47.076;15.494;2023-01-28T13:10:02;570.83;;;158.02;;
1503;SDS011;743;47.076;15.494;2023-01-28T13:12:33;569.40;;;156.40;;
1503;SDS011;743;47.076;15.494;2023-01-28T13:15:03;560.85;;;162.45;;
1503;SDS011;743;47.076;15.494;2023-01-28T13:17:39;592.75;;;172.55;;
1503;SDS011;743;47.076;15.494;2023-01-28T13:20:28;578.30;;;164.10;;
1503;SDS011;743;47.076;15.494;2023-01-28T13:23:01;574.25;;;162.80;;
1503;SDS011;743;47.076;15.494;2023-01-28T13:25:31;564.67;;;176.70;;
1503;SDS011;743;47.076;15.494;2023-01-28T13:28:01;568.53;;;175.30;;
1503;SDS011;743;47.076;15.494;2023-01-28T13:30:32;608.47;;;178.50;;
1503;SDS011;743;47.076;15.494;2023-01-28T13:33:04;598.15;;;191.82;;
1503;SDS011;743;47.076;15.494;2023-01-28T13:35:34;616.38;;;190.95;;
1503;SDS011;743;47.076;15.494;2023-01-28T13:38:08;619.00;;;215.85;;
1503;SDS011;743;47.076;15.494;2023-01-28T13:40:43;599.55;;;222.82;;
1503;SDS011;743;47.076;15.494;2023-01-28T13:43:27;588.72;;;214.60;;
1503;SDS011;743;47.076;15.494;2023-01-28T13:46:04;591.38;;;212.45;;
1503;SDS011;743;47.076;15.494;2023-01-28T13:48:38;594.13;;;219.02;;
1503;SDS011;743;47.076;15.494;2023-01-28T13:51:12;596.63;;;217.25;;
1503;SDS011;743;47.076;15.494;2023-01-28T13:53:54;614.42;;;226.68;;
1503;SDS011;743;47.076;15.494;2023-01-28T13:56:27;589.47;;;205.93;;
1503;SDS011;743;47.076;15.494;2023-01-28T14:02:06;585.88;;;202.90;;
1503;SDS011;743;47.076;15.494;2023-01-28T14:08:16;570.08;;;183.48;;
1503;SDS011;743;47.076;15.494;2023-01-28T14:11:08;564.38;;;186.00;;
1503;SDS011;743;47.076;15.494;2023-01-28T14:13:54;565.47;;;190.27;;
1503;SDS011;743;47.076;15.494;2023-01-28T14:16:43;560.35;;;181.40;;
1503;SDS011;743;47.076;15.494;2023-01-28T14:19:18;562.08;;;178.13;;
1503;SDS011;743;47.076;15.494;2023-01-28T14:21:50;566.65;;;183.38;;
1503;SDS011;743;47.076;15.494;2023-01-28T14:24:33;567.25;;;180.00;;
1503;SDS011;743;47.076;15.494;2023-01-28T14:27:05;563.05;;;180.77;;
1503;SDS011;743;47.076;15.494;2023-01-28T14:29:44;571.05;;;179.90;;
1503;SDS011;743;47.076;15.494;2023-01-28T14:32:17;561.83;;;169.73;;
1503;SDS011;743;47.076;15.494;2023-01-28T14:34:52;565.90;;;167.40;;
1503;SDS011;743;47.076;15.494;2023-01-28T14:37:23;593.13;;;172.90;;
1503;SDS011;743;47.076;15.494;2023-01-28T14:39:57;590.05;;;172.10;;
1503;SDS011;743;47.076;15.494;2023-01-28T14:42:34;583.90;;;163.73;;
1503;SDS011;743;47.076;15.494;2023-01-28T14:45:13;561.95;;;165.52;;
1503;SDS011;743;47.076;15.494;2023-01-28T14:48:09;562.90;;;185.55;;
1503;SDS011;743;47.076;15.494;2023-01-28T14:53:48;584.63;;;189.13;;
1503;SDS011;743;47.076;15.494;2023-01-28T14:56:47;581.92;;;168.25;;
1503;SDS011;743;47.076;15.494;2023-01-28T14:59:33;596.92;;;202.50;;
1503;SDS011;743;47.076;15.494;2023-01-28T15:02:17;558.25;;;162.82;;
1503;SDS011;743;47.076;15.494;2023-01-28T15:04:46;424.67;;;117.70;;
1503;SDS011;743;47.076;15.494;2023-01-28T15:07:14;548.92;;;157.50;;
1503;SDS011;743;47.076;15.494;2023-01-28T15:09:44;542.75;;;157.60;;
1503;SDS011;743;47.076;15.494;2023-01-28T15:12:15;559.85;;;161.13;;
1503;SDS011;743;47.076;15.494;2023-01-28T15:14:46;547.05;;;156.38;;
1503;SDS011;743;47.076;15.494;2023-01-28T15:17:22;578.67;;;170.73;;
1503;SDS011;743;47.076;15.494;2023-01-28T15:19:53;557.65;;;166.63;;
1503;SDS011;743;47.076;15.494;2023-01-28T15:22:23;546.38;;;165.13;;
1503;SDS011;743;47.076;15.494;2023-01-28T15:24:55;530.92;;;161.73;;
1503;SDS011;743;47.076;15.494;2023-01-28T15:27:27;390.35;;;115.97;;